Latest Coastal Weather Observations for Cape Grim

IDV60701

Issued at 9:21 pm EST Saturday 29 April 2017 (issued every 10 minutes, with the page automatically refreshed every 10 minutes)

About coastal observations | Map of coastal stations | Coastal observations for VIC | Marine services | Other Formats
Station Details ID: 091331 Name: CAPE GRIM Lat: -40.68 Lon: 144.69 Height: 86.0 m
Data from the previous 72 hours. | See also: Recent months at Cape Grim
Date/Time
EST
Temp
°C
Wind Pressure Rain since
9am
mm
Weather Cloud Vis
km
Sea
Height
m
Swell
Dir  Spd
kts
Gust
kts
hPa Trend Height
m
Period
s
Dir
29/09:17pm 11.8 S 7 8 1021.9 - 0.0 - Partly cloudy - - - - -
29/09:14pm 11.9 S 8 11 1021.9 - 0.0 - Partly cloudy - - - - -
29/09:03pm 11.9 SSE 7 9 1021.9 - 0.0 - Partly cloudy - - - - -
29/09:00pm 11.9 SSE 7 9 1021.9 - 0.0 - Cloudy - - - - -
29/08:59pm 11.9 SSE 7 9 1021.8 - 0.0 - Partly cloudy - - - - -
29/08:30pm 12.2 S 7 9 1021.8 - 0.0 - Partly cloudy - - - - -
29/08:18pm 12.4 S 6 8 1021.8 - 0.0 - Partly cloudy - - - - -
29/08:00pm 12.5 SSE 6 8 1021.8 - 0.0 - Partly cloudy - - - - -
29/07:30pm 12.9 SSW 11 15 1021.8 - 0.0 - Partly cloudy - - - - -
29/07:00pm 13.1 SSW 11 14 1021.6 - 0.0 - Partly cloudy - - - - -
29/06:30pm 13.3 SW 11 15 1021.2 - 0.0 - Partly cloudy - - - - -
29/06:00pm 13.3 SW 13 18 1021.0 - 0.0 - Mostly cloudy - - - - -
29/05:30pm 13.1 SW 17 24 1020.7 - 0.0 - Cloudy - - - - -
29/05:00pm 13.2 SW 19 25 1020.5 - 0.0 - Partly cloudy - - - - -
29/04:30pm 13.0 SW 17 24 1020.4 - 0.0 - Partly cloudy - - - - -
29/04:28pm 13.2 SW 17 24 1020.3 - 0.0 - Cloudy - - - - -
29/04:12pm 13.0 SW 18 24 1020.3 - 0.0 - Partly cloudy - - - - -
29/04:07pm 13.1 SW 17 24 1020.2 - 0.0 - Partly cloudy - - - - -
29/04:00pm 13.1 SW 16 23 1020.1 - 0.0 - Partly cloudy - - - - -
29/03:54pm 12.9 SW 17 23 1020.0 - 0.0 - Partly cloudy - - - - -
29/03:30pm 13.1 SW 20 26 1019.8 - 0.0 - Partly cloudy - - - - -
29/03:14pm 13.4 SW 23 29 1019.5 - 0.0 - Partly cloudy - - - - -
29/03:00pm 13.4 SW 21 27 1019.4 - 0.0 - Cloudy - - - - -
29/02:45pm 13.8 SW 20 26 1019.5 - 0.0 - Partly cloudy - - - - -
29/02:39pm 13.2 SW 20 26 1019.6 - 0.0 - Partly cloudy - - - - -
29/02:30pm 13.1 SW 20 27 1019.6 - 0.0 - Partly cloudy - - - - -
29/02:26pm 13.7 SW 20 27 1019.5 - 0.0 - Partly cloudy - - - - -
29/02:00pm 13.9 SW 23 29 1019.2 - 0.0 - Partly cloudy - - - - -
29/01:30pm 14.4 SW 23 29 1019.3 - 0.0 - Partly cloudy - - - - -
29/01:00pm 14.0 SW 23 28 1019.7 - 0.0 - Partly cloudy - - - - -
29/12:33pm 14.3 SW 20 26 1020.0 - 0.0 - Partly cloudy - - - - -
29/12:30pm 14.3 SW 19 25 1020.0 - 0.0 - Partly cloudy - - - - -
29/12:14pm 13.2 SW 20 28 1020.1 - 0.0 - Partly cloudy - - - - -
29/12:04pm 14.5 SW 17 27 1020.1 - 0.0 - Partly cloudy - - - - -
29/12:00pm 14.4 SW 17 24 1020.1 - 0.0 - Partly cloudy - - - - -
29/11:30am 14.2 SW 21 24 1020.4 - 0.0 - Partly cloudy - - - - -
29/11:00am 13.1 SW 22 28 1020.2 - 0.0 - Partly cloudy - - - - -
29/10:30am 12.7 SW 18 25 1020.2 - 0.0 - Partly cloudy - - - - -
29/10:05am 13.4 SW 19 29 1019.9 - 0.0 - Partly cloudy - - - - -
29/10:00am 13.7 SW 21 29 1019.9 - 0.0 - Partly cloudy - - - - -
29/09:30am 13.4 SW 23 29 1019.7 - 0.0 - Partly cloudy - - - - -
29/09:00am 13.6 SW 25 31 1019.4 - 1.2 - Cloudy - - - - -
29/08:30am 13.6 SW 27 33 1019.0 - 1.2 - Partly cloudy - - - - -
29/08:00am 13.6 SW 26 31 1018.5 - 1.2 - Partly cloudy - - - - -
29/07:30am 12.7 SW 28 35 1018.1 - 1.2 - Partly cloudy - - - - -
29/07:04am 14.0 SW 21 34 1017.6 - 1.0 - Partly cloudy - - - - -
29/07:00am 14.1 SW 23 32 1017.6 - 1.0 - Partly cloudy - - - - -
29/06:30am 13.9 SW 21 31 1017.5 - 1.0 - Partly cloudy - - - - -
29/06:00am 13.8 SW 22 33 1017.2 - 1.0 - Cloudy - - - - -
29/05:30am 14.0 SW 22 34 1017.0 - 1.0 - Partly cloudy - - - - -
29/05:00am 13.2 SW 18 29 1016.8 - 1.0 - Partly cloudy - - - - -
29/04:30am 13.9 SW 17 28 1016.7 - 1.0 - Partly cloudy - - - - -
29/04:00am 13.8 SW 18 29 1016.8 - 1.0 - Partly cloudy - - - - -
29/03:32am 13.8 SW 23 35 1016.7 - 1.0 - Partly cloudy - - - - -
29/03:30am 13.7 SW 23 33 1016.7 - 1.0 - Partly cloudy - - - - -
29/03:21am 13.8 SW 24 35 1016.7 - 1.0 - Partly cloudy - - - - -
29/03:16am 14.1 SW 23 33 1016.7 - 1.0 - Partly cloudy - - - - -
29/03:06am 14.0 SW 24 35 1016.7 - 1.0 - Partly cloudy - - - - -
29/03:00am 14.1 SW 21 31 1016.7 - 1.0 Rain Cloudy - - - - -
29/02:30am 14.2 WSW 19 30 1016.8 - 0.8 - Partly cloudy - - - - -
29/02:22am 13.9 WSW 20 31 1016.8 - 0.8 - Partly cloudy - - - - -
29/02:00am 13.9 SW 23 34 1016.8 - 0.8 - Partly cloudy - - - - -
29/01:53am 14.3 WSW 19 32 1016.8 - 0.8 - Partly cloudy - - - - -
29/01:51am 14.4 WSW 19 32 1016.8 - 0.6 - Partly cloudy - - - - -
29/01:41am 14.4 W 17 30 1016.7 - 0.6 - Partly cloudy - - - - -
29/01:30am 14.3 W 18 28 1016.8 - 0.6 - Partly cloudy - - - - -
29/01:00am 14.0 WSW 15 27 1016.8 - 0.6 - Partly cloudy - - - - -
29/12:41am 14.3 WSW 16 27 1016.8 - 0.6 - Partly cloudy - - - - -
29/12:31am 14.0 WSW 16 30 1016.7 - 0.6 - Partly cloudy - - - - -
29/12:30am 14.2 WSW 17 30 1016.7 - 0.6 - Partly cloudy - - - - -
29/12:00am 14.3 W 18 28 1016.8 - 0.6 Recent precip. Cloudy - - - - -
 
Date/Time
EST
Temp
°C
Wind Pressure Rain since
9am
mm
Weather Cloud Vis
km
Sea
Height
m
Swell
Dir  Spd
kts
Gust
kts
hPa Trend Height
m
Period
s
Dir
28/11:50pm 13.6 WSW 18 30 1016.8 - 0.6 - Partly cloudy - - - - -
28/11:30pm 14.3 W 18 29 1016.9 - 0.6 - Partly cloudy - - - - -
28/11:20pm 13.9 W 19 30 1017.0 - 0.6 - Partly cloudy - - - - -
28/11:05pm 14.1 W 19 31 1016.9 - 0.6 - Partly cloudy - - - - -
28/11:00pm 14.5 W 19 29 1016.9 - 0.4 - Partly cloudy - - - - -
28/10:30pm 14.5 W 19 31 1017.0 - 0.4 - Partly cloudy - - - - -
28/10:00pm 14.4 WSW 16 26 1017.2 - 0.4 - Partly cloudy - - - - -
28/09:33pm 14.4 W 20 32 1017.1 - 0.4 - Partly cloudy - - - - -
28/09:31pm 14.3 W 21 32 1017.2 - 0.4 - Partly cloudy - - - - -
28/09:30pm 14.3 W 21 30 1017.1 - 0.4 - Partly cloudy - - - - -
28/09:00pm 14.3 W 19 29 1017.0 - 0.4 - Cloudy - - - - -
28/08:51pm 14.2 WSW 17 30 1017.0 - 0.4 - Partly cloudy - - - - -
28/08:30pm 14.6 W 19 30 1017.0 - 0.4 - Partly cloudy - - - - -
28/08:00pm 14.9 W 20 32 1017.0 - 0.4 - Partly cloudy - - - - -
28/07:30pm 14.4 W 20 32 1017.0 - 0.4 - Partly cloudy - - - - -
28/07:00pm 14.9 W 19 29 1017.2 - 0.4 - Partly cloudy - - - - -
28/06:49pm 14.8 W 19 29 1017.1 - 0.4 - Partly cloudy - - - - -
28/06:37pm 14.6 W 21 29 1017.0 - 0.4 - Partly cloudy - - - - -
28/06:30pm 14.5 W 21 32 1017.0 - 0.4 - Partly cloudy - - - - -
28/06:05pm 14.4 W 20 31 1016.9 - 0.4 - Partly cloudy - - - - -
28/06:00pm 14.7 W 20 29 1016.9 - 0.4 - Cloudy - - - - -
28/05:33pm 14.7 W 20 30 1016.9 - 0.4 - Partly cloudy - - - - -
28/05:30pm 14.6 W 20 29 1016.9 - 0.4 - Partly cloudy - - - - -
28/05:01pm 14.7 W 20 30 1016.8 - 0.4 - Partly cloudy - - - - -
28/05:00pm 14.8 W 20 27 1016.8 - 0.4 - Partly cloudy - - - - -
28/04:45pm 14.7 W 19 25 1016.9 - 0.4 - Partly cloudy - - - - -
28/04:30pm 14.6 W 18 26 1017.0 - 0.4 - Partly cloudy - - - - -
28/04:05pm 14.2 W 19 32 1017.2 - 0.4 - Partly cloudy - - - - -
28/04:04pm 14.2 W 19 32 1017.1 - 0.4 - Partly cloudy - - - - -
28/04:00pm 14.1 W 18 27 1017.2 - 0.4 - Partly cloudy - - - - -
28/03:47pm 14.4 W 18 27 1017.2 - 0.2 - Partly cloudy - - - - -
28/03:30pm 14.4 W 17 24 1017.3 - 0.2 - Partly cloudy - - - - -
28/03:06pm 14.3 W 17 28 1017.2 - 0.0 - Partly cloudy - - - - -
28/03:00pm 14.2 W 19 27 1017.2 - 0.0 - Cloudy - - - - -
28/02:33pm 14.8 W 19 26 1017.3 - 0.0 - Partly cloudy - - - - -
28/02:30pm 14.7 W 19 26 1017.3 - 0.0 - Partly cloudy - - - - -
28/02:00pm 15.2 W 15 23 1017.6 - 0.0 - Partly cloudy - - - - -
28/01:52pm 14.8 W 16 24 1017.7 - 0.0 - Partly cloudy - - - - -
28/01:30pm 14.4 W 16 23 1017.8 - 0.0 - Partly cloudy - - - - -
28/01:00pm 14.0 W 17 25 1018.2 - 0.0 - Partly cloudy - - - - -
28/12:53pm 14.9 W 16 23 1018.3 - 0.0 - Partly cloudy - - - - -
28/12:32pm 14.5 W 16 26 1018.4 - 0.0 - Partly cloudy - - - - -
28/12:30pm 14.7 W 16 23 1018.5 - 0.0 - Partly cloudy - - - - -
28/12:20pm 14.7 W 16 25 1018.6 - 0.0 - Partly cloudy - - - - -
28/12:02pm 14.0 W 16 23 1019.0 - 0.0 - Partly cloudy - - - - -
28/12:00pm 14.3 W 16 22 1019.0 - 0.0 - Cloudy - - - - -
28/11:30am 14.5 W 15 22 1019.2 - 0.0 - Partly cloudy - - - - -
28/11:11am 14.5 W 15 25 1019.4 - 0.0 - Partly cloudy - - - - -
28/11:00am 14.5 W 17 24 1019.3 - 0.0 - Partly cloudy - - - - -
28/10:50am 14.6 W 16 27 1019.4 - 0.0 - Partly cloudy - - - - -
28/10:30am 14.2 W 16 23 1019.4 - 0.0 - Cloudy - - - - -
28/10:00am 13.9 W 14 25 1019.4 - 0.0 - Partly cloudy - - - - -
28/09:30am 14.0 W 13 22 1019.3 - 0.0 - Cloudy - - - - -
28/09:18am 13.6 W 15 25 1019.3 - 0.0 - Cloudy - - - - -
28/09:00am 13.6 W 13 22 1019.3 - 0.0 - Cloudy - - - - -
28/08:30am 13.8 WSW 12 21 1019.4 - 0.0 - Cloudy - - - - -
28/08:00am 13.7 W 15 24 1019.2 - 0.0 - Cloudy - - - - -
28/07:56am 13.7 W 15 25 1019.2 - 0.0 - Cloudy - - - - -
28/07:30am 13.2 WSW 13 24 1018.8 - 0.0 - Cloudy - - - - -
28/07:01am 13.4 W 14 24 1018.4 - 0.0 - Partly cloudy - - - - -
28/07:00am 13.3 W 14 24 1018.4 - 0.0 - Partly cloudy - - - - -
28/06:47am 13.2 W 15 26 1018.4 - 0.0 - Partly cloudy - - - - -
28/06:46am 13.3 W 14 24 1018.4 - 0.0 - Partly cloudy - - - - -
28/06:30am 13.1 WSW 13 21 1018.3 - 0.0 - Partly cloudy - - - - -
28/06:01am 13.1 WSW 13 25 1018.2 - 0.0 - Partly cloudy - - - - -
28/06:00am 13.0 WSW 13 25 1018.2 - 0.0 - Cloudy - - - - -
28/05:39am 12.8 SW 14 23 1018.3 - 0.0 - Partly cloudy - - - - -
28/05:36am 12.7 SW 14 23 1018.3 - 0.0 - Partly cloudy - - - - -
28/05:30am 13.0 WSW 13 22 1018.2 - 0.0 - Partly cloudy - - - - -
28/05:22am 13.3 WSW 11 21 1018.1 - 0.0 - Partly cloudy - - - - -
28/05:02am 13.3 WSW 15 25 1018.0 - 0.0 - Cloudy - - - - -
28/05:00am 13.4 WSW 14 24 1018.0 - 0.0 - Cloudy - - - - -
28/04:30am 13.5 WSW 15 24 1017.9 - 0.0 - Cloudy - - - - -
28/04:07am 13.5 WSW 15 26 1017.8 - 0.0 - Cloudy - - - - -
28/04:00am 13.8 WSW 13 23 1017.7 - 0.0 - Cloudy - - - - -
28/03:33am 13.8 W 15 25 1017.8 - 0.0 - Cloudy - - - - -
28/03:30am 13.8 W 16 25 1017.9 - 0.0 - Cloudy - - - - -
28/03:00am 14.2 W 15 25 1017.8 - 0.0 - Cloudy - - - - -
28/02:40am 14.3 W 15 25 1017.9 - 0.0 - Partly cloudy - - - - -
28/02:30am 14.2 W 12 21 1018.0 - 0.0 - Partly cloudy - - - - -
28/02:00am 14.4 W 17 28 1017.9 - 0.0 - Partly cloudy - - - - -
28/01:55am 14.5 W 18 28 1017.9 - 0.0 - Partly cloudy - - - - -
28/01:42am 14.3 W 19 26 1017.9 - 0.0 - Partly cloudy - - - - -
28/01:30am 14.4 W 15 23 1017.9 - 0.0 - Partly cloudy - - - - -
28/01:06am 14.2 W 15 22 1018.3 - 0.0 - Partly cloudy - - - - -
28/01:00am 14.1 W 15 22 1018.3 - 0.0 - Partly cloudy - - - - -
28/12:57am 14.1 W 14 21 1018.3 - 0.0 - Partly cloudy - - - - -
28/12:30am 13.6 W 14 21 1018.4 - 0.0 - Partly cloudy - - - - -
28/12:15am 14.0 W 14 20 1018.5 - 0.0 - Partly cloudy - - - - -
28/12:00am 14.2 W 15 22 1018.5 - 0.0 - Cloudy - - - - -
 
Date/Time
EST
Temp
°C
Wind Pressure Rain since
9am
mm
Weather Cloud Vis
km
Sea
Height
m
Swell
Dir  Spd
kts
Gust
kts
hPa Trend Height
m
Period
s
Dir
27/11:30pm 14.3 W 14 19 1018.5 - 0.0 - Partly cloudy - - - - -
27/11:00pm 14.4 W 16 24 1018.9 - 0.0 - Partly cloudy - - - - -
27/10:30pm 14.2 W 16 24 1018.8 - 0.0 - Partly cloudy - - - - -
27/10:00pm 14.0 W 18 26 1018.8 - 0.0 - Partly cloudy - - - - -
27/09:30pm 14.3 W 18 24 1018.8 - 0.0 - Partly cloudy - - - - -
27/09:00pm 14.2 W 16 23 1019.0 - 0.0 - Cloudy - - - - -
27/08:30pm 14.1 W 15 23 1018.9 - 0.0 - Partly cloudy - - - - -
27/08:00pm 14.0 W 15 24 1019.0 - 0.0 - Partly cloudy - - - - -
27/07:30pm 13.7 W 16 22 1019.0 - 0.0 - Partly cloudy - - - - -
27/07:00pm 13.4 W 16 24 1019.1 - 0.0 - Partly cloudy - - - - -
27/06:33pm 13.7 W 17 28 1018.9 - 0.0 - Partly cloudy - - - - -
27/06:30pm 13.6 W 16 23 1018.9 - 0.0 - Partly cloudy - - - - -
27/06:00pm 12.7 W 17 24 1019.0 - 0.0 - Cloudy - - - - -
27/05:49pm 13.0 W 15 26 1019.1 - 0.0 - Partly cloudy - - - - -
27/05:30pm 12.5 W 16 23 1019.2 - 0.0 - Partly cloudy - - - - -
27/05:00pm 13.3 W 16 24 1019.4 - 0.0 - Partly cloudy - - - - -
27/04:30pm 13.5 W 14 22 1019.3 - 0.0 - Partly cloudy - - - - -
27/04:00pm 13.5 W 15 23 1019.3 - 0.0 - Partly cloudy - - - - -
27/03:30pm 13.7 W 15 26 1019.4 - 0.0 - Partly cloudy - - - - -
27/03:25pm 13.4 W 15 26 1019.3 - 0.0 - Partly cloudy - - - - -
27/03:00pm 13.3 W 15 21 1019.3 - 0.0 - Cloudy - - - - -
27/02:30pm 12.9 W 14 20 1019.3 - 0.0 - Partly cloudy - - - - -
27/02:00pm 12.9 W 14 22 1019.6 - 0.0 - Partly cloudy - - - - -
27/01:30pm 12.7 W 12 19 1020.0 - 0.0 - Partly cloudy - - - - -
27/01:00pm 12.8 WSW 11 20 1020.5 - 0.0 - Partly cloudy - - - - -
27/12:30pm 12.3 SW 15 21 1021.2 - 0.0 - Partly cloudy - - - - -
27/12:01pm 12.5 SW 15 25 1021.2 - 0.0 - Partly cloudy - - - - -
27/12:00pm 12.4 SW 16 25 1021.2 - 0.0 - Cloudy - - - - -
27/11:30am 12.7 WSW 12 19 1021.2 - 0.0 - Partly cloudy - - - - -
27/11:00am 12.0 SW 14 22 1021.5 - 0.0 - Partly cloudy - - - - -
27/10:30am 11.6 SW 15 21 1021.4 - 0.0 - Partly cloudy - - - - -
27/10:00am 11.5 SW 15 19 1021.4 - 0.0 - Partly cloudy - - - - -
27/09:30am 11.3 SW 15 20 1021.4 - 0.0 - - - - - - -
27/09:00am 10.9 SW 16 24 1021.2 - 4.6 - Mostly clear - - - - -
27/08:30am 10.5 SW 15 22 1021.1 - 4.6 - Partly cloudy - - - - -
27/08:20am 10.2 S 6 19 1021.1 - 4.6 - Partly cloudy - - - - -
27/08:00am 8.9 SSE 5 9 1021.1 - 4.6 - Partly cloudy - - - - -
27/07:30am 6.9 E 5 8 1020.8 - 4.6 - Partly cloudy - - - - -
27/07:00am 7.2 SE 6 8 1020.8 - 4.4 - Partly cloudy - - - - -
27/06:30am 6.7 ESE 5 7 1020.6 - 4.4 - Partly cloudy - - - - -
27/06:00am 6.7 SSE 5 6 1020.5 - 4.4 Recent precip. Cloudy - - - - -
27/05:30am 7.3 SSE 6 8 1020.4 - 4.4 - Partly cloudy - - - - -
27/05:00am 6.9 SSE 4 6 1020.1 - 4.2 - Partly cloudy - - - - -
27/04:30am 7.2 SSE 7 11 1020.0 - 4.0 - Partly cloudy - - - - -
27/04:00am 6.8 SE 7 11 1019.6 - 4.0 - Partly cloudy - - - - -
27/03:30am 7.0 SSE 8 10 1019.5 - 3.8 - Partly cloudy - - - - -
27/03:00am 6.8 SE 10 13 1019.6 - 3.8 - Mostly clear - - - - -
27/02:30am 6.5 SE 11 13 1019.8 - 3.8 - Partly cloudy - - - - -
27/02:00am 6.7 SE 12 15 1019.8 - 3.8 - Partly cloudy - - - - -
27/01:30am 6.8 SE 11 14 1019.7 - 3.8 - Partly cloudy - - - - -
27/01:00am 7.2 SSE 7 9 1019.5 - 3.8 - Partly cloudy - - - - -
27/12:30am 6.7 SSE 7 9 1019.4 - 3.8 - Partly cloudy - - - - -
27/12:00am 6.9 SSE 11 17 1019.4 - 3.8 - Mostly clear - - - - -
 
Date/Time
EST
Temp
°C
Wind Pressure Rain since
9am
mm
Weather Cloud Vis
km
Sea
Height
m
Swell
Dir  Spd
kts
Gust
kts
hPa Trend Height
m
Period
s
Dir
26/11:30pm 7.1 SSE 12 17 1019.3 - 3.8 - Partly cloudy - - - - -
26/11:00pm 6.3 SSE 8 11 1019.2 - 3.8 - - - - - - -
26/10:30pm 7.0 SSE 12 15 1019.0 - 3.8 - Partly cloudy - - - - -
26/10:00pm 7.1 SSE 11 14 1018.7 - 3.8 - Partly cloudy - - - - -
26/09:30pm 7.0 SSE 11 16 1018.4 - 3.8 - Partly cloudy - - - - -

Other Formats:

Comma delimited format used in spreadsheet applications
http://www.bom.gov.au/fwo/IDV60701/IDV60701.95954.axf

JavaScript Object Notation format (JSON) in row-major order
http://www.bom.gov.au/fwo/IDV60701/IDV60701.95954.json